createdAt,value
2022-08-28T00:00:02.401Z,25.29
2022-08-28T00:01:07.612Z,25.29
2022-08-28T00:02:10.732Z,25.28
2022-08-28T00:03:14.668Z,25.28
2022-08-28T00:04:19.564Z,25.28
2022-08-28T00:05:25.145Z,25.28
2022-08-28T00:06:28.754Z,25.28
2022-08-28T00:07:31.854Z,25.28
2022-08-28T00:08:35.131Z,25.28
2022-08-28T00:09:38.318Z,25.29
2022-08-28T00:10:42.037Z,25.28
2022-08-28T00:11:46.584Z,25.29
2022-08-28T00:12:51.064Z,25.29
2022-08-28T00:13:54.062Z,25.28
2022-08-28T00:14:59.057Z,25.30
2022-08-28T00:16:02.163Z,25.30
2022-08-28T00:17:05.252Z,25.29
2022-08-28T00:18:08.406Z,25.29
2022-08-28T00:19:11.879Z,25.30
2022-08-28T00:20:19.347Z,25.28
2022-08-28T00:21:22.428Z,25.27
2022-08-28T00:22:26.115Z,25.26
2022-08-28T00:23:42.294Z,25.26
2022-08-28T00:24:34.919Z,25.26
2022-08-28T00:25:38.022Z,25.26
2022-08-28T00:26:59.717Z,25.26
2022-08-28T00:28:08.886Z,25.27
2022-08-28T00:29:11.787Z,25.27
2022-08-28T00:30:16.431Z,25.26
2022-08-28T00:31:19.644Z,25.25
2022-08-28T00:32:24.677Z,25.26
2022-08-28T00:33:32.526Z,25.26
2022-08-28T00:34:35.740Z,25.24
2022-08-28T00:35:40.112Z,25.24
2022-08-28T00:36:44.414Z,25.23
2022-08-28T00:37:48.099Z,25.23
2022-08-28T00:38:51.302Z,25.22
2022-08-28T00:39:54.740Z,25.21
2022-08-28T00:41:03.609Z,25.21
2022-08-28T00:42:07.328Z,25.20
2022-08-28T00:43:13.073Z,25.19
2022-08-28T00:44:19.664Z,25.18
2022-08-28T00:45:24.175Z,25.18
2022-08-28T00:46:27.435Z,25.18
2022-08-28T00:47:30.690Z,25.17
2022-08-28T00:48:33.800Z,25.18
2022-08-28T00:49:40.700Z,25.18
2022-08-28T00:51:02.436Z,25.18
2022-08-28T00:52:11.799Z,25.18
2022-08-28T00:53:15.487Z,25.19
2022-08-28T00:54:19.285Z,25.20
2022-08-28T00:55:25.900Z,25.19
2022-08-28T00:56:32.736Z,25.20
2022-08-28T00:57:40.383Z,25.20
2022-08-28T00:58:46.105Z,25.22
2022-08-28T00:59:49.372Z,25.23
2022-08-28T01:00:53.897Z,25.23
2022-08-28T01:01:59.107Z,25.25
2022-08-28T01:03:04.572Z,25.24
2022-08-28T01:04:10.579Z,25.26
2022-08-28T01:05:15.925Z,25.27
2022-08-28T01:06:21.947Z,25.27
2022-08-28T01:07:25.866Z,25.27
2022-08-28T01:08:30.287Z,25.28
2022-08-28T01:09:36.472Z,25.28
2022-08-28T01:10:42.436Z,25.28
2022-08-28T01:11:47.595Z,25.28
2022-08-28T01:12:52.694Z,25.28
2022-08-28T01:13:58.947Z,25.29
2022-08-28T01:15:09.428Z,25.28
2022-08-28T01:16:15.922Z,25.29
2022-08-28T01:17:23.051Z,25.28
2022-08-28T01:18:27.497Z,25.27
2022-08-28T01:19:40.077Z,25.26
2022-08-28T01:20:47.246Z,25.25
2022-08-28T01:22:15.837Z,25.24
2022-08-28T01:23:25.264Z,25.23
2022-08-28T01:24:29.350Z,25.21
2022-08-28T01:25:35.829Z,25.20
2022-08-28T01:26:39.133Z,25.19
2022-08-28T01:27:42.809Z,25.19
2022-08-28T01:28:45.913Z,25.19
2022-08-28T01:29:49.600Z,25.19
2022-08-28T01:30:53.095Z,25.19
2022-08-28T01:31:56.365Z,25.18
2022-08-28T01:33:00.357Z,25.18
2022-08-28T01:34:03.857Z,25.19
2022-08-28T01:35:10.703Z,25.18
2022-08-28T01:36:15.215Z,25.18
2022-08-28T01:37:18.325Z,25.19
2022-08-28T01:38:21.975Z,25.19
2022-08-28T01:39:26.604Z,25.18
2022-08-28T01:40:39.539Z,25.17
2022-08-28T01:41:47.811Z,25.17
2022-08-28T01:42:50.898Z,25.17
2022-08-28T01:43:54.036Z,25.15
2022-08-28T01:44:57.367Z,25.14
2022-08-28T01:46:03.987Z,25.13
2022-08-28T01:47:07.198Z,25.13
2022-08-28T01:48:11.759Z,25.12
2022-08-28T01:49:15.087Z,25.11
2022-08-28T01:50:21.185Z,25.12
2022-08-28T01:51:24.791Z,25.09
2022-08-28T01:52:28.419Z,25.09
2022-08-28T01:53:33.010Z,25.11
2022-08-28T01:54:37.044Z,25.11
2022-08-28T01:55:43.233Z,25.10
2022-08-28T01:56:47.137Z,25.11
2022-08-28T01:57:53.331Z,25.10
2022-08-28T01:58:56.528Z,25.11
2022-08-28T01:59:59.817Z,25.10
2022-08-28T02:01:02.942Z,25.11
2022-08-28T02:02:06.357Z,25.09
2022-08-28T02:03:10.459Z,25.10
2022-08-28T02:04:14.025Z,25.09
2022-08-28T02:05:18.861Z,25.10
2022-08-28T02:06:22.162Z,25.10
2022-08-28T02:07:25.373Z,25.10
2022-08-28T02:08:28.463Z,25.11
2022-08-28T02:09:31.531Z,25.11
2022-08-28T02:10:37.500Z,25.12
2022-08-28T02:11:42.420Z,25.12
2022-08-28T02:12:48.712Z,25.13
2022-08-28T02:13:54.306Z,25.12
2022-08-28T02:14:59.302Z,25.13
2022-08-28T02:16:03.825Z,25.14
2022-08-28T02:17:06.974Z,25.14
2022-08-28T02:18:10.413Z,25.15
2022-08-28T02:19:13.759Z,25.15
2022-08-28T02:20:18.797Z,25.14
2022-08-28T02:21:22.719Z,25.17
2022-08-28T02:22:26.239Z,25.16
2022-08-28T02:23:29.543Z,25.15
2022-08-28T02:24:32.773Z,25.16
2022-08-28T02:25:35.866Z,25.16
2022-08-28T02:26:39.108Z,25.17
2022-08-28T02:27:43.714Z,25.17
2022-08-28T02:28:47.042Z,25.18
2022-08-28T02:29:50.410Z,25.18
2022-08-28T02:30:53.651Z,25.19
2022-08-28T02:31:56.818Z,25.18
2022-08-28T02:32:59.806Z,25.17
2022-08-28T02:34:04.009Z,25.17
2022-08-28T02:35:11.937Z,25.15
2022-08-28T02:36:16.552Z,25.14
2022-08-28T02:37:20.977Z,25.13
2022-08-28T02:38:24.178Z,25.12
2022-08-28T02:39:27.361Z,25.09
2022-08-28T02:40:31.168Z,25.09
2022-08-28T02:41:34.423Z,25.09
2022-08-28T02:42:37.546Z,25.09
2022-08-28T02:43:40.852Z,25.08
2022-08-28T02:44:44.023Z,25.08
2022-08-28T02:45:47.767Z,25.08
2022-08-28T02:46:52.166Z,25.07
2022-08-28T02:47:57.190Z,25.08
2022-08-28T02:49:00.274Z,25.08
2022-08-28T02:50:03.943Z,25.07
2022-08-28T02:51:10.870Z,25.06
2022-08-28T02:52:13.993Z,25.07
2022-08-28T02:53:17.454Z,25.06
2022-08-28T02:54:21.252Z,25.06
2022-08-28T02:55:24.848Z,25.07
2022-08-28T02:56:28.412Z,25.06
2022-08-28T02:57:31.899Z,25.07
2022-08-28T02:58:35.758Z,25.06
2022-08-28T02:59:38.984Z,25.06
2022-08-28T03:00:43.417Z,25.06
2022-08-28T03:01:46.760Z,25.06
2022-08-28T03:02:50.564Z,25.07
2022-08-28T03:03:53.829Z,25.07
2022-08-28T03:04:57.520Z,25.08
2022-08-28T03:06:01.352Z,25.08
2022-08-28T03:07:06.940Z,25.08
2022-08-28T03:08:10.065Z,25.09
2022-08-28T03:09:13.202Z,25.10
2022-08-28T03:10:17.802Z,25.12
2022-08-28T03:11:21.009Z,25.13
2022-08-28T03:12:24.389Z,25.15
2022-08-28T03:13:27.693Z,25.17
2022-08-28T03:14:30.780Z,25.18
2022-08-28T03:15:33.854Z,25.21
2022-08-28T03:16:36.988Z,25.22
2022-08-28T03:17:40.508Z,25.23
2022-08-28T03:18:45.286Z,25.26
2022-08-28T03:19:49.598Z,25.26
2022-08-28T03:20:55.109Z,25.28
2022-08-28T03:21:58.119Z,25.29
2022-08-28T03:23:19.861Z,25.31
2022-08-28T03:24:22.975Z,25.33
2022-08-28T03:25:26.737Z,25.34
2022-08-28T03:26:30.519Z,25.36
2022-08-28T03:27:34.006Z,25.39
2022-08-28T03:28:40.668Z,25.39
2022-08-28T03:29:43.779Z,25.40
2022-08-28T03:30:47.192Z,25.41
2022-08-28T03:31:50.350Z,25.43
2022-08-28T03:32:53.463Z,25.44
2022-08-28T03:33:57.033Z,25.44
2022-08-28T03:35:00.019Z,25.45
2022-08-28T03:36:04.889Z,25.44
2022-08-28T03:37:08.915Z,25.45
2022-08-28T03:38:13.243Z,25.46
2022-08-28T03:39:16.387Z,25.45
2022-08-28T03:40:19.889Z,25.46
2022-08-28T03:41:26.410Z,25.45
2022-08-28T03:42:29.513Z,25.45
2022-08-28T03:43:34.396Z,25.45
2022-08-28T03:44:38.335Z,25.44
2022-08-28T03:45:41.550Z,25.45
2022-08-28T03:46:44.949Z,25.44
2022-08-28T03:47:49.008Z,25.43
2022-08-28T03:48:55.030Z,25.42
2022-08-28T03:49:58.751Z,25.41
2022-08-28T03:51:11.511Z,25.41
2022-08-28T03:52:15.830Z,25.40
2022-08-28T03:53:21.052Z,25.40
2022-08-28T03:54:24.627Z,25.41
2022-08-28T03:55:28.318Z,25.41
2022-08-28T03:56:32.569Z,25.42
2022-08-28T03:57:36.325Z,25.42
2022-08-28T03:58:41.990Z,25.43
2022-08-28T03:59:50.743Z,25.43
2022-08-28T04:00:55.063Z,25.45
2022-08-28T04:01:58.268Z,25.45
2022-08-28T04:03:01.663Z,25.46
2022-08-28T04:04:05.004Z,25.47
2022-08-28T04:05:09.383Z,25.48
2022-08-28T04:06:13.680Z,25.49
2022-08-28T04:07:18.391Z,25.51
2022-08-28T04:08:22.507Z,25.51
2022-08-28T04:09:25.661Z,25.52
2022-08-28T04:10:29.149Z,25.54
2022-08-28T04:11:38.174Z,25.56
2022-08-28T04:12:41.524Z,25.56
2022-08-28T04:13:44.671Z,25.56
2022-08-28T04:14:48.258Z,25.58
2022-08-28T04:16:07.272Z,25.60
2022-08-28T04:17:10.765Z,25.62
2022-08-28T04:18:13.988Z,25.64
2022-08-28T04:19:17.245Z,25.65
2022-08-28T04:20:21.325Z,25.66
2022-08-28T04:21:25.612Z,25.68
2022-08-28T04:22:30.009Z,25.69
2022-08-28T04:23:35.421Z,25.71
2022-08-28T04:24:38.539Z,25.73
2022-08-28T04:25:41.630Z,25.75
2022-08-28T04:26:44.717Z,25.76
2022-08-28T04:27:48.819Z,25.77
2022-08-28T04:28:52.710Z,25.79
2022-08-28T04:29:57.532Z,25.80
2022-08-28T04:31:01.311Z,25.80
2022-08-28T04:32:04.510Z,25.82
2022-08-28T04:33:07.681Z,25.83
2022-08-28T04:34:11.064Z,25.83
2022-08-28T04:35:14.577Z,25.84
2022-08-28T04:36:18.368Z,25.85
2022-08-28T04:37:21.957Z,25.84
2022-08-28T04:38:27.004Z,25.84
2022-08-28T04:39:30.087Z,25.83
2022-08-28T04:40:33.674Z,25.82
2022-08-28T04:41:38.086Z,25.80
2022-08-28T04:42:41.916Z,25.79
2022-08-28T04:43:45.020Z,25.78
2022-08-28T04:44:48.096Z,25.76
2022-08-28T04:45:51.207Z,25.74
2022-08-28T04:46:54.460Z,25.74
2022-08-28T04:48:00.205Z,25.72
2022-08-28T04:49:05.268Z,25.70
2022-08-28T04:50:10.546Z,25.69
2022-08-28T04:51:14.544Z,25.67
2022-08-28T04:52:17.695Z,25.67
2022-08-28T04:53:20.883Z,25.65
2022-08-28T04:54:23.911Z,25.63
2022-08-28T04:55:40.076Z,25.63
2022-08-28T04:56:33.980Z,25.61
2022-08-28T04:57:36.970Z,25.60
2022-08-28T04:58:42.079Z,25.60
2022-08-28T04:59:45.198Z,25.57
2022-08-28T05:00:49.031Z,25.57
2022-08-28T05:01:52.200Z,25.56
2022-08-28T05:02:55.330Z,25.55
2022-08-28T05:04:01.686Z,25.55
2022-08-28T05:05:05.116Z,25.55
2022-08-28T05:06:09.212Z,25.55
2022-08-28T05:07:12.286Z,25.57
2022-08-28T05:08:17.886Z,25.57
2022-08-28T05:09:21.385Z,25.56
2022-08-28T05:10:25.485Z,25.57
2022-08-28T05:11:34.546Z,25.57
2022-08-28T05:12:36.419Z,25.57
2022-08-28T05:13:39.832Z,25.57
2022-08-28T05:14:43.256Z,25.57
2022-08-28T05:15:49.241Z,25.58
2022-08-28T05:16:52.743Z,25.58
2022-08-28T05:17:55.849Z,25.59
2022-08-28T05:19:00.352Z,25.59
2022-08-28T05:20:05.536Z,25.60
2022-08-28T05:21:20.866Z,25.61
2022-08-28T05:22:24.064Z,25.62
2022-08-28T05:23:27.880Z,25.62
2022-08-28T05:24:30.880Z,25.63
2022-08-28T05:25:39.245Z,25.64
2022-08-28T05:26:42.674Z,25.66
2022-08-28T05:27:45.899Z,25.67
2022-08-28T05:28:50.316Z,25.68
2022-08-28T05:29:54.817Z,25.69
2022-08-28T05:31:02.125Z,25.70
2022-08-28T05:32:05.544Z,25.72
2022-08-28T05:33:10.138Z,25.72
2022-08-28T05:34:14.650Z,25.73
2022-08-28T05:40:09.905Z,25.77
2022-08-28T05:41:20.173Z,25.77
2022-08-28T05:42:23.267Z,25.75
2022-08-28T05:43:29.073Z,25.77
2022-08-28T05:44:32.268Z,25.76
2022-08-28T05:45:35.396Z,25.78
2022-08-28T05:46:40.914Z,25.79
2022-08-28T05:47:44.247Z,25.81
2022-08-28T05:48:48.857Z,25.83
2022-08-28T05:49:52.309Z,25.85
2022-08-28T05:50:57.839Z,25.86
2022-08-28T05:52:01.020Z,25.89
2022-08-28T05:53:04.462Z,25.90
2022-08-28T05:54:08.060Z,25.93
2022-08-28T05:55:12.323Z,25.94
2022-08-28T05:56:22.649Z,25.96
2022-08-28T05:57:25.790Z,25.97
2022-08-28T05:58:28.946Z,25.99
2022-08-28T05:59:32.051Z,26.02
2022-08-28T06:00:36.426Z,26.03
2022-08-28T06:01:43.184Z,26.06
2022-08-28T06:02:46.236Z,26.08
2022-08-28T06:03:55.617Z,26.09
2022-08-28T06:04:59.234Z,26.12
2022-08-28T06:06:02.625Z,26.13
2022-08-28T06:07:06.174Z,26.15
2022-08-28T06:08:09.341Z,26.18
2022-08-28T06:09:18.734Z,26.19
2022-08-28T06:10:23.605Z,26.21
2022-08-28T06:11:30.616Z,26.21
2022-08-28T06:12:33.386Z,26.25
2022-08-28T06:13:36.996Z,26.25
2022-08-28T06:14:40.273Z,26.28
2022-08-28T06:15:45.908Z,26.29
2022-08-28T06:16:52.448Z,26.33
2022-08-28T06:17:55.711Z,26.33
2022-08-28T06:18:59.976Z,26.35
2022-08-28T06:20:03.739Z,26.36
2022-08-28T06:21:07.169Z,26.38
2022-08-28T06:22:11.758Z,26.40
2022-08-28T06:23:23.861Z,26.42
2022-08-28T06:24:23.456Z,26.44
2022-08-28T06:25:26.554Z,26.46
2022-08-28T06:26:31.434Z,26.47
2022-08-28T06:27:36.261Z,26.49
2022-08-28T06:28:39.426Z,26.52
2022-08-28T06:29:44.172Z,26.53
2022-08-28T06:31:17.813Z,26.56
2022-08-28T06:31:55.509Z,26.57
2022-08-28T06:32:58.855Z,26.58
2022-08-28T06:34:02.391Z,26.61
2022-08-28T06:35:05.892Z,26.62
2022-08-28T06:36:10.816Z,26.64
2022-08-28T06:37:14.026Z,26.66
2022-08-28T06:38:18.554Z,26.68
2022-08-28T06:39:22.885Z,26.69
2022-08-28T06:40:27.113Z,26.71
2022-08-28T06:41:31.808Z,26.73
2022-08-28T06:42:34.925Z,26.74
2022-08-28T06:43:38.018Z,26.76
2022-08-28T06:44:41.077Z,26.79
2022-08-28T06:45:46.191Z,26.82
2022-08-28T06:46:52.528Z,26.82
2022-08-28T06:47:55.609Z,26.85
2022-08-28T06:48:58.752Z,26.87
2022-08-28T06:50:01.716Z,26.89
2022-08-28T06:51:09.984Z,26.90
2022-08-28T06:52:13.189Z,26.91
2022-08-28T06:53:18.775Z,26.95
2022-08-28T06:54:23.550Z,26.95
2022-08-28T06:55:26.889Z,26.98
2022-08-28T06:56:31.279Z,27.00
2022-08-28T06:57:34.970Z,27.02
2022-08-28T06:58:41.200Z,27.04
2022-08-28T06:59:44.459Z,27.05
2022-08-28T07:00:50.873Z,27.07
2022-08-28T07:01:53.908Z,27.09
2022-08-28T07:02:57.625Z,27.13
2022-08-28T07:04:07.393Z,27.13
2022-08-28T07:05:10.642Z,27.15
2022-08-28T07:06:15.046Z,27.18
2022-08-28T07:07:31.485Z,27.19
2022-08-28T07:08:24.647Z,27.22
2022-08-28T07:09:27.894Z,27.23
2022-08-28T07:10:31.464Z,27.26
2022-08-28T07:11:35.454Z,27.27
2022-08-28T07:12:39.892Z,27.29
2022-08-28T07:13:44.441Z,27.30
2022-08-28T07:14:47.969Z,27.34
2022-08-28T07:15:51.567Z,27.34
2022-08-28T07:16:56.378Z,27.35
2022-08-28T07:18:00.383Z,27.37
2022-08-28T07:19:04.620Z,27.39
2022-08-28T07:20:10.953Z,27.42
2022-08-28T07:21:14.174Z,27.44
2022-08-28T07:22:17.273Z,27.46
2022-08-28T07:23:20.507Z,27.48
2022-08-28T07:24:23.784Z,27.49
2022-08-28T07:25:26.797Z,27.52
2022-08-28T07:26:30.984Z,27.53
2022-08-28T07:27:35.976Z,27.54
2022-08-28T07:28:39.679Z,27.57
2022-08-28T07:29:42.973Z,27.58
2022-08-28T07:32:12.684Z,27.73
2022-08-28T07:33:15.805Z,27.64
2022-08-28T07:34:21.422Z,27.66
2022-08-28T07:35:24.472Z,27.68
2022-08-28T07:36:29.580Z,27.69
2022-08-28T07:37:33.248Z,27.71
2022-08-28T07:38:38.501Z,27.73
2022-08-28T07:39:41.801Z,27.75
2022-08-28T07:40:45.415Z,27.77
2022-08-28T07:41:48.648Z,27.79
2022-08-28T07:43:10.207Z,27.82
2022-08-28T07:44:33.170Z,27.84
2022-08-28T07:45:36.324Z,27.88
2022-08-28T07:46:41.206Z,27.90
2022-08-28T07:47:44.357Z,27.91
2022-08-28T07:48:47.534Z,27.94
2022-08-28T07:49:52.455Z,27.96
2022-08-28T07:50:55.681Z,27.99
2022-08-28T07:51:59.101Z,28.01
2022-08-28T07:53:02.225Z,28.03
2022-08-28T07:54:06.953Z,28.06
2022-08-28T07:55:11.968Z,28.07
2022-08-28T07:56:16.282Z,28.09
2022-08-28T07:57:20.586Z,28.11
2022-08-28T07:58:25.675Z,28.14
2022-08-28T07:59:34.190Z,28.16
2022-08-28T08:00:34.676Z,28.18
2022-08-28T08:01:41.444Z,28.20
2022-08-28T08:02:44.609Z,28.22
2022-08-28T08:03:47.822Z,28.26
2022-08-28T08:04:53.093Z,28.27
2022-08-28T08:06:02.625Z,28.28
2022-08-28T08:07:06.310Z,28.30
2022-08-28T08:08:09.500Z,28.31
2022-08-28T08:09:15.625Z,28.32
2022-08-28T08:10:20.809Z,28.34
2022-08-28T08:11:24.696Z,28.35
2022-08-28T08:12:29.366Z,28.36
2022-08-28T08:13:34.409Z,28.37
2022-08-28T08:14:39.739Z,28.38
2022-08-28T08:15:43.089Z,28.38
2022-08-28T08:16:46.859Z,28.40
2022-08-28T08:17:50.080Z,28.41
2022-08-28T08:18:54.731Z,28.43
2022-08-28T08:19:57.803Z,28.43
2022-08-28T08:21:02.916Z,28.45
2022-08-28T08:22:06.303Z,28.46
2022-08-28T08:23:09.634Z,28.47
2022-08-28T08:24:19.605Z,28.49
2022-08-28T08:25:19.470Z,28.51
2022-08-28T08:26:25.806Z,28.52
2022-08-28T08:27:29.248Z,28.54
2022-08-28T08:28:34.081Z,28.55
2022-08-28T08:29:38.211Z,28.58
2022-08-28T08:30:41.407Z,28.59
2022-08-28T08:31:44.492Z,28.61
2022-08-28T08:32:47.588Z,28.62
2022-08-28T08:33:53.658Z,28.65
2022-08-28T08:34:56.802Z,28.65
2022-08-28T08:36:00.567Z,28.67
2022-08-28T08:37:05.083Z,28.68
2022-08-28T08:38:09.476Z,28.69
2022-08-28T08:39:12.607Z,28.69
2022-08-28T08:40:19.434Z,28.71
2022-08-28T08:41:50.653Z,28.71
2022-08-28T08:42:57.977Z,28.73
2022-08-28T08:44:33.568Z,28.74
2022-08-28T08:45:37.020Z,28.74
2022-08-28T08:46:43.942Z,28.75
2022-08-28T08:47:50.870Z,28.76
2022-08-28T08:48:56.126Z,28.76
2022-08-28T08:50:02.821Z,28.77
2022-08-28T08:51:09.519Z,28.78
2022-08-28T08:52:35.691Z,28.79
2022-08-28T08:54:05.897Z,28.79
2022-08-28T08:55:18.612Z,28.81
2022-08-28T08:56:23.321Z,28.81
2022-08-28T08:57:27.443Z,28.81
2022-08-28T08:58:36.941Z,28.81
2022-08-28T08:59:41.127Z,28.82
2022-08-28T09:01:02.306Z,28.83
2022-08-28T09:02:31.212Z,28.85
2022-08-28T09:03:49.162Z,28.87
2022-08-28T09:05:06.495Z,28.88
2022-08-28T09:06:13.823Z,28.90
2022-08-28T09:07:23.346Z,28.90
2022-08-28T09:08:45.239Z,28.91
2022-08-28T09:09:52.022Z,28.93
2022-08-28T09:11:01.524Z,28.94
2022-08-28T09:12:08.463Z,28.96
2022-08-28T09:13:26.952Z,28.97
2022-08-28T09:15:09.397Z,28.99
2022-08-28T09:16:17.642Z,29.00
2022-08-28T09:17:24.487Z,29.02
2022-08-28T09:18:31.156Z,29.02
2022-08-28T09:19:35.283Z,29.05
2022-08-28T09:20:38.724Z,29.06
2022-08-28T09:21:44.946Z,29.08
2022-08-28T09:22:48.927Z,29.09
2022-08-28T09:23:54.545Z,29.11
2022-08-28T09:24:58.647Z,29.12
2022-08-28T09:26:06.710Z,29.14
2022-08-28T09:27:28.818Z,29.16
2022-08-28T09:28:35.525Z,29.18
2022-08-28T09:29:42.244Z,29.20
2022-08-28T09:30:55.161Z,29.21
2022-08-28T09:32:00.418Z,29.23
2022-08-28T09:33:03.668Z,29.24
2022-08-28T09:34:23.126Z,29.25
2022-08-28T09:35:34.760Z,29.26
2022-08-28T09:36:38.606Z,29.28
2022-08-28T09:37:43.433Z,29.27
2022-08-28T09:38:48.693Z,29.29
2022-08-28T09:40:11.961Z,29.29
2022-08-28T09:41:34.311Z,29.31
2022-08-28T09:42:55.692Z,29.33
2022-08-28T09:43:58.828Z,29.34
2022-08-28T09:45:14.475Z,29.34
2022-08-28T09:46:32.230Z,29.36
2022-08-28T09:47:50.960Z,29.37
2022-08-28T09:49:09.549Z,29.40
2022-08-28T09:50:23.335Z,29.40
2022-08-28T09:51:29.835Z,29.40
2022-08-28T09:52:33.021Z,29.42
2022-08-28T09:53:39.700Z,29.43
2022-08-28T09:54:45.133Z,29.44
2022-08-28T09:56:08.232Z,29.46
2022-08-28T09:57:11.479Z,29.48
2022-08-28T09:58:15.654Z,29.51
2022-08-28T09:59:21.691Z,29.52
2022-08-28T10:00:26.723Z,29.53
2022-08-28T10:01:48.598Z,29.54
2022-08-28T10:03:13.521Z,29.57
2022-08-28T10:04:35.432Z,29.58
2022-08-28T10:05:42.115Z,29.60
2022-08-28T10:06:57.892Z,29.61
2022-08-28T10:08:21.161Z,29.63
2022-08-28T10:09:30.536Z,29.64
2022-08-28T10:10:45.837Z,29.65
2022-08-28T10:11:55.432Z,29.66
2022-08-28T10:13:11.273Z,29.69
2022-08-28T10:14:27.306Z,29.70
2022-08-28T10:15:34.048Z,29.72
2022-08-28T10:16:53.028Z,29.73
2022-08-28T10:18:29.816Z,29.74
2022-08-28T10:19:56.664Z,29.76
2022-08-28T10:21:07.317Z,29.77
2022-08-28T10:22:36.413Z,29.79
2022-08-28T10:23:58.274Z,29.78
2022-08-28T10:25:30.847Z,29.80
2022-08-28T10:26:38.201Z,29.82
2022-08-28T10:27:56.820Z,29.83
2022-08-28T10:29:19.961Z,29.84
2022-08-28T10:30:24.444Z,29.87
2022-08-28T10:31:36.898Z,29.89
2022-08-28T10:32:49.277Z,29.91
2022-08-28T10:33:55.942Z,29.94
2022-08-28T10:35:05.412Z,29.95
2022-08-28T10:36:33.703Z,29.98
2022-08-28T10:37:47.095Z,29.99
2022-08-28T10:38:56.975Z,30.02
2022-08-28T10:40:12.549Z,30.04
2022-08-28T10:41:25.371Z,30.07
2022-08-28T10:42:38.186Z,30.08
2022-08-28T10:43:50.636Z,30.10
2022-08-28T10:45:06.576Z,30.12
2022-08-28T10:46:16.813Z,30.13
2022-08-28T10:47:23.290Z,30.15
2022-08-28T10:48:40.744Z,30.16
2022-08-28T10:49:47.105Z,30.17
2022-08-28T10:50:53.993Z,30.19
2022-08-28T10:52:04.575Z,30.20
2022-08-28T10:53:11.511Z,30.23
2022-08-28T10:54:30.017Z,30.24
2022-08-28T10:55:45.659Z,30.27
2022-08-28T10:56:56.171Z,30.28
2022-08-28T10:58:24.058Z,30.29
2022-08-28T10:59:16.324Z,30.30
2022-08-28T11:00:22.807Z,30.31
2022-08-28T11:01:32.374Z,30.32
2022-08-28T11:02:36.782Z,30.33
2022-08-28T11:03:49.324Z,30.35
2022-08-28T11:04:58.507Z,30.37
2022-08-28T11:06:05.265Z,30.38
2022-08-28T11:07:11.987Z,30.38
2022-08-28T11:08:27.784Z,30.40
2022-08-28T11:09:34.633Z,30.41
2022-08-28T11:10:47.808Z,30.43
2022-08-28T11:12:01.082Z,30.43
2022-08-28T11:13:02.317Z,30.44
2022-08-28T11:14:05.478Z,30.45
2022-08-28T11:15:36.766Z,30.46
2022-08-28T11:16:40.366Z,30.47
2022-08-28T11:17:44.358Z,30.48
2022-08-28T11:19:07.520Z,30.50
2022-08-28T11:20:26.744Z,30.51
2022-08-28T11:21:36.151Z,30.53
2022-08-28T11:22:48.636Z,30.55
2022-08-28T11:23:58.674Z,30.57
2022-08-28T11:25:18.006Z,30.60
2022-08-28T11:26:41.705Z,30.61
2022-08-28T11:28:21.821Z,30.64
2022-08-28T11:30:03.338Z,30.66
2022-08-28T11:31:10.130Z,30.68
2022-08-28T11:32:33.511Z,30.70
2022-08-28T11:33:43.230Z,30.70
2022-08-28T11:34:57.180Z,30.73
2022-08-28T11:36:00.407Z,30.76
2022-08-28T11:42:30.916Z,30.86
2022-08-28T11:43:34.932Z,30.90
2022-08-28T11:44:45.432Z,30.92
2022-08-28T11:45:55.106Z,30.95
2022-08-28T11:47:18.712Z,30.98
2022-08-28T11:48:26.501Z,31.01
2022-08-28T11:49:33.174Z,31.05
2022-08-28T11:50:54.711Z,31.08
2022-08-28T11:52:16.525Z,31.11
2022-08-28T11:53:26.203Z,31.16
2022-08-28T11:54:49.595Z,31.20
2022-08-28T11:56:31.892Z,31.23
2022-08-28T11:57:53.190Z,31.27
2022-08-28T11:59:06.481Z,31.29
2022-08-28T12:00:17.218Z,31.31
2022-08-28T12:01:34.557Z,31.33
2022-08-28T12:02:44.293Z,31.33
2022-08-28T12:04:08.311Z,31.36
2022-08-28T12:05:20.416Z,31.37
2022-08-28T12:06:47.265Z,31.38
2022-08-28T12:07:51.407Z,31.38
2022-08-28T12:08:58.006Z,31.39
2022-08-28T12:10:04.965Z,31.38
2022-08-28T12:11:06.294Z,31.39
2022-08-28T12:12:46.245Z,31.39
2022-08-28T12:13:52.122Z,31.39
2022-08-28T12:14:58.949Z,31.39
2022-08-28T12:16:07.072Z,31.38
2022-08-28T12:17:23.978Z,31.39
2022-08-28T12:18:48.261Z,31.38
2022-08-28T12:20:00.780Z,31.37
2022-08-28T12:21:24.063Z,31.36
2022-08-28T12:22:31.035Z,31.33
2022-08-28T12:24:04.194Z,31.33
2022-08-28T12:25:08.668Z,31.32
2022-08-28T12:26:29.412Z,31.31
2022-08-28T12:27:36.147Z,31.30
2022-08-28T12:28:57.597Z,31.29
2022-08-28T12:30:02.195Z,31.28
2022-08-28T12:31:09.602Z,31.26
2022-08-28T12:32:34.513Z,31.26
2022-08-28T12:33:54.529Z,31.24
2022-08-28T12:35:01.638Z,31.22
2022-08-28T12:36:08.007Z,31.21
2022-08-28T12:37:51.015Z,31.21
2022-08-28T12:38:42.751Z,31.20
2022-08-28T12:39:45.993Z,31.18
2022-08-28T12:40:52.304Z,31.18
2022-08-28T12:41:56.668Z,31.17
2022-08-28T12:43:04.848Z,31.17
2022-08-28T12:44:11.754Z,31.17
2022-08-28T12:45:24.449Z,31.16
2022-08-28T12:46:34.570Z,31.15
2022-08-28T12:47:39.906Z,31.15
2022-08-28T12:49:01.069Z,31.15
2022-08-28T12:50:28.989Z,31.15
2022-08-28T12:51:35.955Z,31.14
2022-08-28T12:52:42.554Z,31.14
2022-08-28T12:53:50.092Z,31.13
2022-08-28T12:54:58.199Z,31.14
2022-08-28T12:56:01.629Z,31.13
2022-08-28T12:57:07.710Z,31.13
2022-08-28T12:58:32.403Z,31.13
2022-08-28T12:59:38.945Z,31.14
2022-08-28T13:00:52.340Z,31.14
2022-08-28T13:02:08.141Z,31.15
2022-08-28T13:03:11.653Z,31.13
2022-08-28T13:04:24.411Z,31.14
2022-08-28T13:05:31.239Z,31.14
2022-08-28T13:06:38.608Z,31.13
2022-08-28T13:07:53.984Z,31.12
2022-08-28T13:09:03.686Z,31.12
2022-08-28T13:10:16.323Z,31.11
2022-08-28T13:11:20.041Z,31.11
2022-08-28T13:12:55.245Z,31.10
2022-08-28T13:13:46.318Z,31.10
2022-08-28T13:14:51.700Z,31.09
2022-08-28T13:16:00.231Z,31.09
2022-08-28T13:17:04.009Z,31.09
2022-08-28T13:18:07.828Z,31.09
2022-08-28T13:19:14.464Z,31.09
2022-08-28T13:20:30.519Z,31.09
2022-08-28T13:21:38.392Z,31.09
2022-08-28T13:22:41.869Z,31.09
2022-08-28T13:23:55.514Z,31.08
2022-08-28T13:25:00.801Z,31.08
2022-08-28T13:26:05.725Z,31.10
2022-08-28T13:27:18.403Z,31.10
2022-08-28T13:28:22.008Z,31.10
2022-08-28T13:29:25.212Z,31.11
2022-08-28T13:30:34.017Z,31.11
2022-08-28T13:31:42.346Z,31.12
2022-08-28T13:32:57.900Z,31.13
2022-08-28T13:34:09.024Z,31.12
2022-08-28T13:35:16.045Z,31.14
2022-08-28T13:36:23.953Z,31.15
2022-08-28T13:37:50.576Z,31.18
2022-08-28T13:38:54.097Z,31.20
2022-08-28T13:39:57.266Z,31.23
2022-08-28T13:41:04.990Z,31.26
2022-08-28T13:42:12.455Z,31.28
2022-08-28T13:43:17.574Z,31.31
2022-08-28T13:44:29.696Z,31.35
2022-08-28T13:45:43.058Z,31.38
2022-08-28T13:46:41.230Z,31.42
2022-08-28T13:47:44.388Z,31.46
2022-08-28T13:48:47.622Z,31.49
2022-08-28T13:49:50.741Z,31.52
2022-08-28T13:51:00.636Z,31.56
2022-08-28T13:52:07.304Z,31.60
2022-08-28T13:53:12.837Z,31.63
2022-08-28T13:54:16.105Z,31.68
2022-08-28T13:55:19.649Z,31.71
2022-08-28T13:56:25.044Z,31.75
2022-08-28T13:57:28.159Z,31.78
2022-08-28T13:58:31.410Z,31.81
2022-08-28T13:59:34.726Z,31.84
2022-08-28T14:00:41.527Z,31.87
2022-08-28T14:02:04.485Z,31.91
2022-08-28T14:03:25.930Z,31.94
2022-08-28T14:04:29.087Z,31.97
2022-08-28T14:05:32.268Z,32.01
2022-08-28T14:06:35.606Z,32.04
2022-08-28T14:07:39.019Z,32.07
2022-08-28T14:08:43.508Z,32.10
2022-08-28T14:09:46.749Z,32.12
2022-08-28T14:10:50.190Z,32.14
2022-08-28T14:11:55.041Z,32.17
2022-08-28T14:12:58.663Z,32.19
2022-08-28T14:14:02.773Z,32.20
2022-08-28T14:15:07.211Z,32.23
2022-08-28T14:16:13.085Z,32.25
2022-08-28T14:17:18.406Z,32.26
2022-08-28T14:18:21.939Z,32.28
2022-08-28T14:19:25.119Z,32.28
2022-08-28T14:20:31.563Z,32.32
2022-08-28T14:21:36.806Z,32.33
2022-08-28T14:22:40.218Z,32.35
2022-08-28T14:23:43.310Z,32.36
2022-08-28T14:24:46.402Z,32.38
2022-08-28T14:25:49.986Z,32.39
2022-08-28T14:26:53.269Z,32.39
2022-08-28T14:27:56.366Z,32.39
2022-08-28T14:29:11.957Z,32.41
2022-08-28T14:30:16.063Z,32.41
2022-08-28T14:31:19.705Z,32.40
2022-08-28T14:32:23.064Z,32.39
2022-08-28T14:33:26.327Z,32.38
2022-08-28T14:34:33.256Z,32.35
2022-08-28T14:35:41.008Z,32.31
2022-08-28T14:36:44.610Z,32.27